• Join FlightAware (Why Join?)
  • Login
  • US Flag 
08:42AM EDT


 

Airport Tracker/Info


-or-


 

Live Flight TrackerFlight Track Log ✈ SKW7367 ✈ 14-Apr-2014 ✈ KDTW - KAPN

Flight Track Log - Related Links

Times and Time Zones

All times are in EDT time to prevent confusion due to time zone crossing. See the SKW7367 flight status page for this flight to view local times or setup timezone preferences in your user account.

Time Position Orientation Groundspeed Altitude Reporting Facility
EDT Latitude Longitude Course Direction KTS MPH feet Rate Location/Type
06:26PM 42.2281 -83.3533 North 155 178 1,400  Level Cleveland Center
06:27PM 42.2953 -83.3261 17° North 238 274 4,100 1,980 Climbing Cleveland Center
06:28PM 42.3150 -83.3178 17° North 227 261 4,600 2,160 Climbing Cleveland Center
06:28PM 42.3658 -83.3078 North 293 337 6,100 1,920 Climbing Cleveland Center
06:29PM 42.4865 -83.3500 North  Level FlightAware Approximate
06:29PM 42.3864 -83.3069 North 283 326 6,600  Level Cleveland Center
06:30PM 42.5820 -83.3500 North  Level FlightAware Approximate
06:30PM 42.4817 -83.3214 354° North 316 364 9,900  Level Cleveland Center
06:31PM 42.6775 -83.3500 North  Level FlightAware Approximate
06:31PM 42.5736 -83.3308 356° North 330 380 12,100  Level Cleveland Center
06:32PM 42.6739 -83.3417 355° North 359 413 14,100 1,380 Climbing Cleveland Center
06:33PM 42.8072 -83.3533 356° North 400 460 15,000 420 Climbing Cleveland Center
06:34PM 42.9217 -83.3633 356° North 412 474 15,000  Level Cleveland Center
06:35PM 43.0350 -83.3733 356° North 411 473 15,000  Level Cleveland Center
06:36PM 43.1472 -83.3817 357° North 410 472 15,000  Level Cleveland Center
06:37PM 43.2600 -83.3928 356° North 409 471 15,000  Level Cleveland Center
06:38PM 43.3717 -83.4025 356° North 408 470 15,000  Level Cleveland Center
06:39PM 43.5064 -83.4136 357° North 405 466 15,000  Level Cleveland Center
06:40PM 43.6181 -83.4244 356° North 405 466 15,000 -60 Level Cleveland Center
06:41PM 43.7300 -83.4333 357° North 405 466 14,900 -60 Descending Cleveland Center
06:42PM 43.8408 -83.4447 356° North 405 466 14,900 -720 Level Cleveland Center
06:43PM 43.9519 -83.4533 357° North 391 450 13,500 -1,680 Descending Minneapolis Center
06:44PM 44.0544 -83.4747 351° North 350 403 11,700 -1,620 Descending Minneapolis Center
06:45PM 44.1372 -83.4950 350° North 312 359 10,200 -1,620 Descending Minneapolis Center
06:46PM 44.2211 -83.5269 345° North 295 339 8,500 -1,380 Descending Minneapolis Center
06:47PM 44.2947 -83.5564 344° North 283 326 7,400 -1,020 Descending Minneapolis Center
06:48PM 44.3786 -83.5592 359° North 278 320 6,400 -960 Descending Minneapolis Center
06:49PM 44.4492 -83.5586 360° North 262 302 5,500 -1,020 Descending Minneapolis Center
06:50PM 44.5225 -83.5600 359° North 250 288 4,400 -780 Descending Minneapolis Center
06:51PM 44.5908 -83.5597 360° North 250 288 4,000 -240 Descending Minneapolis Center
06:52PM 44.6608 -83.5550 North 241 277 4,000  Level Minneapolis Center
06:53PM 44.7242 -83.5600 357° North 234 269 4,000  Level Minneapolis Center
06:54PM 44.7897 -83.5592 North 224 258 4,000 -540 Level Minneapolis Center
06:55PM 44.8472 -83.5592 360° North 213 245 2,900 -540 Descending Minneapolis Center
06:56PM 44.9025 -83.5603 359° North 192 221 2,900 -60 Level Minneapolis Center
06:57PM 44.9494 -83.5606 360° North 178 205 2,800 -300 Descending Minneapolis Center
06:58PM 44.9892 -83.5608 360° North 141 162 2,400 -540 Descending Minneapolis Center
06:59PM 45.0217 -83.5608 360° North 123 142 1,700 -780 Descending Minneapolis Center
07:00PM 45.0575 -83.5611 360° North 123 142 900 -540 Descending Minneapolis Center
07:02PM 45.0881 -83.5617 359° North 123 142 700 -240 Descending Minneapolis Center